createdAt,value
2023-04-11T00:00:54.019Z,43.0347
2023-04-11T00:01:55.684Z,42.8407
2023-04-11T00:02:57.621Z,42.8414
2023-04-11T00:03:59.146Z,42.6443
2023-04-11T00:05:00.739Z,42.4795
2023-04-11T00:06:02.279Z,42.5071
2023-04-11T00:07:03.902Z,42.2633
2023-04-11T00:08:05.642Z,42.0984
2023-04-11T00:09:07.216Z,41.9767
2023-04-11T00:10:08.871Z,41.8287
2023-04-11T00:11:10.649Z,41.7700
2023-04-11T00:12:12.180Z,41.6396
2023-04-11T00:13:13.935Z,41.5004
2023-04-11T00:14:16.097Z,41.4669
2023-04-11T00:15:17.141Z,41.3312
2023-04-11T00:16:18.851Z,41.4028
2023-04-11T00:17:20.471Z,46.0272
2023-04-11T00:18:22.165Z,45.9858
2023-04-11T00:19:23.770Z,45.9813
2023-04-11T00:20:25.449Z,45.4125
2023-04-11T00:21:27.126Z,44.9314
2023-04-11T00:22:28.744Z,44.4719
2023-04-11T00:23:31.292Z,44.1852
2023-04-11T00:24:32.073Z,43.8581
2023-04-11T00:25:33.796Z,43.6296
2023-04-11T00:26:35.370Z,43.5796
2023-04-11T00:27:37.019Z,43.4741
2023-04-11T00:28:38.766Z,43.1504
2023-04-11T00:29:40.417Z,42.9833
2023-04-11T00:30:42.031Z,42.7196
2023-04-11T00:31:43.742Z,42.5849
2023-04-11T00:32:45.366Z,42.5003
2023-04-11T00:33:47.058Z,42.3803
2023-04-11T00:34:48.714Z,42.2532
2023-04-11T00:35:50.364Z,42.1396
2023-04-11T00:36:52.034Z,42.0167
2023-04-11T00:37:53.576Z,41.9135
2023-04-11T00:38:56.001Z,41.7740
2023-04-11T00:39:57.013Z,41.6870
2023-04-11T00:40:58.625Z,41.5291
2023-04-11T00:42:00.321Z,41.5178
2023-04-11T00:43:02.045Z,41.2915
2023-04-11T00:44:03.638Z,41.0578
2023-04-11T00:45:05.264Z,40.9870
2023-04-11T00:46:07.030Z,41.5277
2023-04-11T00:47:08.675Z,45.9334
2023-04-11T00:48:10.227Z,45.4698
2023-04-11T00:49:11.904Z,45.5575
2023-04-11T00:50:13.558Z,45.1626
2023-04-11T00:51:15.291Z,44.5471
2023-04-11T00:52:16.857Z,44.1409
2023-04-11T00:53:18.548Z,43.8592
2023-04-11T00:54:20.213Z,43.5636
2023-04-11T00:55:21.800Z,43.4570
2023-04-11T00:56:23.432Z,43.3290
2023-04-11T00:57:25.155Z,43.1186
2023-04-11T00:58:26.790Z,42.9111
2023-04-11T00:59:28.395Z,42.7926
2023-04-11T01:00:30.176Z,42.7013
2023-04-11T01:01:32.801Z,42.4208
2023-04-11T01:02:33.446Z,42.2967
2023-04-11T01:03:35.160Z,42.2535
2023-04-11T01:04:36.770Z,42.1632
2023-04-11T01:05:38.401Z,41.9469
2023-04-11T01:06:40.032Z,41.8489
2023-04-11T01:07:41.678Z,41.7502
2023-04-11T01:08:43.304Z,41.7072
2023-04-11T01:09:45.006Z,41.4958
2023-04-11T01:10:46.634Z,41.4035
2023-04-11T01:11:48.266Z,41.3304
2023-04-11T01:12:49.906Z,41.2507
2023-04-11T01:13:51.592Z,41.2075
2023-04-11T01:14:53.267Z,41.2057
2023-04-11T01:15:54.927Z,41.3190
2023-04-11T01:16:56.699Z,41.1019
2023-04-11T01:17:58.258Z,41.0116
2023-04-11T01:18:59.901Z,40.8297
2023-04-11T01:20:01.766Z,40.7438
2023-04-11T01:21:03.177Z,40.6905
2023-04-11T01:22:04.755Z,40.7371
2023-04-11T01:23:05.306Z,40.7487
2023-04-11T01:24:08.139Z,40.7109
2023-04-11T01:25:10.247Z,40.6077
2023-04-11T01:26:11.518Z,42.1072
2023-04-11T01:27:13.170Z,45.5843
2023-04-11T01:28:14.891Z,45.1145
2023-04-11T01:29:16.409Z,45.3217
2023-04-11T01:30:18.237Z,44.9711
2023-04-11T01:31:19.728Z,44.4437
2023-04-11T01:32:21.436Z,43.9291
2023-04-11T01:33:23.063Z,43.7242
2023-04-11T01:34:24.755Z,43.5508
2023-04-11T01:35:27.212Z,43.4188
2023-04-11T01:36:28.023Z,43.3746
2023-04-11T01:37:29.590Z,43.2053
2023-04-11T01:38:31.290Z,43.1254
2023-04-11T01:39:33.011Z,43.0827
2023-04-11T01:40:34.649Z,43.0129
2023-04-11T01:41:36.251Z,42.8881
2023-04-11T01:42:38.001Z,42.6822
2023-04-11T01:43:39.529Z,42.5051
2023-04-11T01:44:41.200Z,42.4383
2023-04-11T01:45:42.881Z,42.3001
2023-04-11T01:46:44.561Z,42.2273
2023-04-11T01:47:47.046Z,42.2450
2023-04-11T01:48:47.945Z,42.1332
2023-04-11T01:49:49.485Z,42.1051
2023-04-11T01:50:51.152Z,41.9516
2023-04-11T01:51:52.795Z,41.8012
2023-04-11T01:52:54.524Z,41.9201
2023-04-11T01:53:56.123Z,41.7533
2023-04-11T01:54:58.291Z,41.6768
2023-04-11T01:55:59.416Z,41.6795
2023-04-11T01:57:01.016Z,41.4409
2023-04-11T01:58:02.737Z,41.3551
2023-04-11T01:59:04.393Z,41.2444
2023-04-11T02:00:06.706Z,41.1588
2023-04-11T02:01:07.859Z,41.0964
2023-04-11T02:02:09.471Z,41.1150
2023-04-11T02:03:11.121Z,41.0395
2023-04-11T02:04:12.825Z,41.6304
2023-04-11T02:05:14.344Z,44.5896
2023-04-11T02:06:16.598Z,45.0069
2023-04-11T02:07:17.658Z,45.4415
2023-04-11T02:08:19.218Z,45.2200
2023-04-11T02:09:20.892Z,44.7795
2023-04-11T02:10:22.533Z,44.0640
2023-04-11T02:11:24.322Z,43.9235
2023-04-11T02:12:25.870Z,43.8284
2023-04-11T02:13:27.416Z,43.6788
2023-04-11T02:14:29.133Z,43.6455
2023-04-11T02:15:30.934Z,43.4505
2023-04-11T02:16:32.536Z,43.4300
2023-04-11T02:17:34.226Z,43.4380
2023-04-11T02:18:35.728Z,43.2190
2023-04-11T02:19:37.457Z,43.0970
2023-04-11T02:20:39.140Z,43.0419
2023-04-11T02:21:40.790Z,42.8205
2023-04-11T02:22:42.458Z,42.5815
2023-04-11T02:23:44.147Z,42.5640
2023-04-11T02:24:45.741Z,42.3960
2023-04-11T02:25:48.224Z,42.4343
2023-04-11T02:26:49.148Z,42.3485
2023-04-11T02:27:50.803Z,42.3612
2023-04-11T02:28:52.462Z,42.3107
2023-04-11T02:29:54.031Z,42.2350
2023-04-11T02:30:55.732Z,41.9510
2023-04-11T02:31:57.374Z,41.7847
2023-04-11T02:32:59.028Z,41.6842
2023-04-11T02:34:00.635Z,41.7482
2023-04-11T02:35:02.320Z,41.8009
2023-04-11T02:36:04.110Z,41.6463
2023-04-11T02:37:05.747Z,42.7860
2023-04-11T02:38:07.189Z,45.5799
2023-04-11T02:39:08.912Z,45.9315
2023-04-11T02:40:10.495Z,45.9313
2023-04-11T02:41:12.190Z,45.5563
2023-04-11T02:42:14.583Z,45.1333
2023-04-11T02:43:15.601Z,44.6449
2023-04-11T02:44:17.207Z,44.4547
2023-04-11T02:45:18.881Z,44.2337
2023-04-11T02:46:20.443Z,44.1745
2023-04-11T02:47:22.362Z,44.2648
2023-04-11T02:48:23.861Z,44.0713
2023-04-11T02:49:25.428Z,44.1208
2023-04-11T02:50:27.124Z,43.8068
2023-04-11T02:51:28.816Z,43.8398
2023-04-11T02:52:30.444Z,43.7744
2023-04-11T02:53:32.075Z,43.6755
2023-04-11T02:54:33.806Z,43.8146
2023-04-11T02:55:35.422Z,44.0291
2023-04-11T02:56:37.019Z,43.7011
2023-04-11T02:57:38.648Z,43.2797
2023-04-11T02:58:40.324Z,42.7906
2023-04-11T02:59:41.942Z,42.3874
2023-04-11T03:00:43.644Z,42.0571
2023-04-11T03:01:45.351Z,41.8407
2023-04-11T03:02:46.933Z,41.6937
2023-04-11T03:03:48.595Z,41.7313
2023-04-11T03:04:50.207Z,41.7834
2023-04-11T03:05:51.785Z,41.7408
2023-04-11T03:06:53.438Z,41.7714
2023-04-11T03:07:55.237Z,41.7703
2023-04-11T03:08:57.489Z,41.6958
2023-04-11T03:09:58.526Z,41.7398
2023-04-11T03:11:00.082Z,41.6415
2023-04-11T03:12:01.726Z,41.7004
2023-04-11T03:13:04.312Z,41.6892
2023-04-11T03:14:05.070Z,41.6789
2023-04-11T03:15:06.738Z,41.6804
2023-04-11T03:16:08.435Z,41.5553
2023-04-11T03:17:09.986Z,41.6014
2023-04-11T03:18:11.698Z,41.5575
2023-04-11T03:19:13.423Z,41.6289
2023-04-11T03:20:14.993Z,41.6493
2023-04-11T03:21:16.620Z,41.6223
2023-04-11T03:22:18.256Z,41.6368
2023-04-11T03:23:19.963Z,41.5842
2023-04-11T03:24:21.591Z,41.5864
2023-04-11T03:25:23.335Z,41.5862
2023-04-11T03:26:24.942Z,41.5409
2023-04-11T03:27:26.547Z,41.6664
2023-04-11T03:28:29.236Z,41.7479
2023-04-11T03:29:29.905Z,41.6990
2023-04-11T03:30:31.512Z,41.6854
2023-04-11T03:31:33.195Z,41.6179
2023-04-11T03:32:34.848Z,41.6320
2023-04-11T03:33:37.387Z,41.6405
2023-04-11T03:34:38.198Z,41.7311
2023-04-11T03:35:39.887Z,41.8641
2023-04-11T03:36:41.491Z,41.8507
2023-04-11T03:37:43.076Z,41.7999
2023-04-11T03:38:44.699Z,41.8094
2023-04-11T03:39:46.477Z,41.7399
2023-04-11T03:40:48.070Z,41.7900
2023-04-11T03:41:49.738Z,41.7719
2023-04-11T03:42:51.368Z,41.7203
2023-04-11T03:43:53.013Z,42.0246
2023-04-11T03:44:54.740Z,42.0664
2023-04-11T03:45:56.380Z,41.9693
2023-04-11T03:46:58.067Z,42.0238
2023-04-11T03:47:59.660Z,41.9815
2023-04-11T03:49:01.270Z,41.9530
2023-04-11T03:50:03.291Z,42.0979
2023-04-11T03:51:04.602Z,42.0063
2023-04-11T03:52:06.216Z,42.0062
2023-04-11T03:53:07.854Z,42.2167
2023-04-11T03:54:09.514Z,42.3950
2023-04-11T03:55:11.186Z,42.3757
2023-04-11T03:56:12.822Z,42.4390
2023-04-11T03:57:14.587Z,42.3715
2023-04-11T03:58:16.168Z,42.3482
2023-04-11T03:59:17.816Z,42.5015
2023-04-11T04:00:20.139Z,42.4881
2023-04-11T04:01:21.141Z,42.5373
2023-04-11T04:02:22.957Z,42.9105
2023-04-11T04:03:24.680Z,42.9454
2023-04-11T04:04:26.262Z,42.8136
2023-04-11T04:05:27.752Z,42.8610
2023-04-11T04:06:29.370Z,42.8894
2023-04-11T04:07:31.077Z,42.8572
2023-04-11T04:08:32.690Z,42.9301
2023-04-11T04:09:34.431Z,42.9117
2023-04-11T04:10:35.973Z,43.0884
2023-04-11T04:11:37.665Z,43.2578
2023-04-11T04:12:39.362Z,43.3719
2023-04-11T04:13:40.979Z,43.3012
2023-04-11T04:14:42.662Z,43.2932
2023-04-11T04:15:44.300Z,43.2555
2023-04-11T04:16:46.060Z,43.2857
2023-04-11T04:17:47.618Z,43.3678
2023-04-11T04:18:49.249Z,43.5827
2023-04-11T04:19:50.903Z,43.6331
2023-04-11T04:20:52.533Z,43.5912
2023-04-11T04:21:54.210Z,43.6702
2023-04-11T04:22:55.830Z,43.7797
2023-04-11T04:23:57.622Z,43.8365
2023-04-11T04:24:59.445Z,43.9670
2023-04-11T04:26:00.831Z,44.3290
2023-04-11T04:27:02.528Z,44.2608
2023-04-11T04:28:04.081Z,44.1985
2023-04-11T04:29:05.756Z,44.0887
2023-04-11T04:30:07.462Z,44.1514
2023-04-11T04:31:09.078Z,44.0836
2023-04-11T04:32:10.883Z,44.1755
2023-04-11T04:33:12.535Z,44.2096
2023-04-11T04:34:14.007Z,44.3898
2023-04-11T04:35:15.672Z,44.4062
2023-04-11T04:36:17.225Z,44.6138
2023-04-11T04:37:18.940Z,44.5688
2023-04-11T04:38:20.556Z,44.5976
2023-04-11T04:39:22.208Z,44.6004
2023-04-11T04:40:23.913Z,44.5813
2023-04-11T04:41:25.517Z,44.8795
2023-04-11T04:42:27.172Z,44.9161
2023-04-11T04:43:28.925Z,45.1087
2023-04-11T04:44:30.529Z,45.2774
2023-04-11T04:45:32.374Z,45.3623
2023-04-11T04:46:33.828Z,45.3317
2023-04-11T04:47:35.529Z,45.1742
2023-04-11T04:48:37.124Z,45.5017
2023-04-11T04:49:38.762Z,45.6477
2023-04-11T04:50:40.474Z,45.6855
2023-04-11T04:51:42.072Z,45.7082
2023-04-11T04:52:43.666Z,45.5369
2023-04-11T04:53:45.430Z,45.6339
2023-04-11T04:54:47.078Z,45.7408
2023-04-11T04:55:48.736Z,45.9746
2023-04-11T04:56:50.329Z,45.9484
2023-04-11T04:57:52.051Z,45.8334
2023-04-11T04:58:53.575Z,45.6912
2023-04-11T04:59:55.289Z,45.6395
2023-04-11T05:00:56.952Z,45.5976
2023-04-11T05:01:58.639Z,45.4865
2023-04-11T05:03:00.398Z,45.2780
2023-04-11T05:04:02.489Z,45.3887
2023-04-11T05:05:03.623Z,45.4312
2023-04-11T05:06:05.257Z,45.5508
2023-04-11T05:07:06.873Z,45.5548
2023-04-11T05:08:08.506Z,45.6295
2023-04-11T05:09:10.153Z,45.7870
2023-04-11T05:10:11.832Z,45.8146
2023-04-11T05:11:13.798Z,45.7495
2023-04-11T05:12:15.064Z,45.7501
2023-04-11T05:13:16.704Z,45.6277
2023-04-11T05:14:18.388Z,45.8291
2023-04-11T05:15:20.416Z,46.1875
2023-04-11T05:16:21.817Z,47.0004
2023-04-11T05:17:25.182Z,46.9842
2023-04-11T05:18:25.046Z,47.1141
2023-04-11T05:19:26.681Z,47.0190
2023-04-11T05:20:29.250Z,47.2032
2023-04-11T05:21:30.835Z,47.3961
2023-04-11T05:22:31.625Z,48.9663
2023-04-11T05:23:33.372Z,48.9108
2023-04-11T05:24:34.987Z,48.9266
2023-04-11T05:25:36.754Z,48.2738
2023-04-11T05:26:38.966Z,48.2471
2023-04-11T05:27:39.994Z,48.2781
2023-04-11T05:28:41.782Z,49.6508
2023-04-11T05:29:43.345Z,49.9910
2023-04-11T05:30:44.968Z,49.7136
2023-04-11T05:31:46.924Z,49.4539
2023-04-11T05:32:48.345Z,48.7571
2023-04-11T05:33:51.017Z,48.7801
2023-04-11T05:34:51.635Z,50.0534
2023-04-11T05:35:53.324Z,50.3605
2023-04-11T05:36:54.875Z,50.4546
2023-04-11T05:37:56.742Z,49.8572
2023-04-11T05:38:58.260Z,49.3425
2023-04-11T05:39:59.820Z,49.1375
2023-04-11T05:41:01.453Z,50.5044
2023-04-11T05:42:03.151Z,50.9498
2023-04-11T05:43:04.999Z,50.8297
2023-04-11T05:44:06.390Z,50.3252
2023-04-11T05:45:08.089Z,49.8188
2023-04-11T05:46:09.740Z,49.5708
2023-04-11T05:47:11.595Z,50.8112
2023-04-11T05:48:14.227Z,51.5062
2023-04-11T05:49:14.788Z,51.2297
2023-04-11T05:50:16.483Z,50.8171
2023-04-11T05:51:18.194Z,50.2110
2023-04-11T05:52:19.930Z,49.9304
2023-04-11T05:53:21.376Z,51.4128
2023-04-11T05:54:23.044Z,51.6805
2023-04-11T05:55:24.719Z,50.9172
2023-04-11T05:56:26.352Z,50.6906
2023-04-11T05:57:28.337Z,50.2849
2023-04-11T05:58:29.673Z,50.3762
2023-04-11T05:59:31.364Z,51.7599
2023-04-11T06:00:32.958Z,51.8079
2023-04-11T06:01:34.520Z,50.9951
2023-04-11T06:02:36.295Z,50.6483
2023-04-11T06:03:37.912Z,50.3687
2023-04-11T06:04:40.117Z,50.8244
2023-04-11T06:05:41.133Z,52.0993
2023-04-11T06:06:42.752Z,51.3560
2023-04-11T06:07:44.443Z,51.0314
2023-04-11T06:08:46.159Z,50.6802
2023-04-11T06:09:47.834Z,50.5068
2023-04-11T06:10:49.502Z,50.7920
2023-04-11T06:11:51.124Z,51.9306
2023-04-11T06:12:52.780Z,51.3627
2023-04-11T06:13:54.545Z,51.4126
2023-04-11T06:14:56.019Z,50.8923
2023-04-11T06:15:57.873Z,50.7456
2023-04-11T06:16:59.391Z,51.4024
2023-04-11T06:18:01.196Z,51.5625
2023-04-11T06:19:02.649Z,51.3888
2023-04-11T06:20:05.919Z,51.1223
2023-04-11T06:21:06.125Z,50.9401
2023-04-11T06:22:07.758Z,50.9675
2023-04-11T06:23:09.968Z,51.7091
2023-04-11T06:24:10.915Z,51.6933
2023-04-11T06:25:12.602Z,51.5880
2023-04-11T06:26:14.234Z,51.1556
2023-04-11T06:27:16.844Z,50.9144
2023-04-11T06:28:17.642Z,51.2076
2023-04-11T06:29:19.945Z,52.1045
2023-04-11T06:30:21.051Z,51.6023
2023-04-11T06:31:23.569Z,51.4404
2023-04-11T06:32:24.633Z,51.0695
2023-04-11T06:33:25.755Z,51.2801
2023-04-11T06:34:27.677Z,51.7766
2023-04-11T06:35:29.166Z,52.1136
2023-04-11T06:36:30.787Z,51.6220
2023-04-11T06:37:32.512Z,51.4828
2023-04-11T06:38:34.586Z,51.4747
2023-04-11T06:39:35.825Z,51.5045
2023-04-11T06:40:37.452Z,52.3047
2023-04-11T06:41:39.026Z,52.1636
2023-04-11T06:42:41.050Z,52.2484
2023-04-11T06:43:42.539Z,51.4733
2023-04-11T06:44:44.373Z,51.3346
2023-04-11T06:45:45.652Z,52.0706
2023-04-11T06:46:47.488Z,52.3585
2023-04-11T06:47:49.075Z,51.8640
2023-04-11T06:48:50.634Z,51.6839
2023-04-11T06:49:52.240Z,51.4299
2023-04-11T06:50:55.046Z,51.5503
2023-04-11T06:51:55.548Z,51.9956
2023-04-11T06:52:57.299Z,52.4418
2023-04-11T06:53:58.888Z,51.8942
2023-04-11T06:55:00.564Z,51.9284
2023-04-11T06:56:02.164Z,51.3688
2023-04-11T06:57:03.881Z,51.2444
2023-04-11T06:58:05.355Z,51.8242
2023-04-11T06:59:07.301Z,52.0711
2023-04-11T07:00:08.727Z,51.8323
2023-04-11T07:01:10.373Z,51.6631
2023-04-11T07:02:12.112Z,51.4107
2023-04-11T07:03:13.797Z,51.6957
2023-04-11T07:04:15.516Z,52.3331
2023-04-11T07:05:16.981Z,52.4742
2023-04-11T07:06:18.696Z,52.2187
2023-04-11T07:07:20.318Z,51.7703
2023-04-11T07:08:21.894Z,51.3563
2023-04-11T07:09:23.592Z,51.4945
2023-04-11T07:10:25.258Z,51.6143
2023-04-11T07:11:26.950Z,52.3072
2023-04-11T07:12:28.458Z,51.7970
2023-04-11T07:13:30.904Z,51.5693
2023-04-11T07:14:31.904Z,51.3356
2023-04-11T07:15:33.463Z,51.3868
2023-04-11T07:16:35.170Z,51.7543
2023-04-11T07:17:36.967Z,52.2176
2023-04-11T07:18:38.400Z,51.7141
2023-04-11T07:19:40.103Z,51.5441
2023-04-11T07:20:41.725Z,51.1560
2023-04-11T07:21:43.405Z,51.2243
2023-04-11T07:22:45.032Z,51.7526
2023-04-11T07:23:46.661Z,52.2885
2023-04-11T07:24:48.340Z,51.3767
2023-04-11T07:25:49.953Z,51.3483
2023-04-11T07:26:51.798Z,51.0092
2023-04-11T07:27:53.334Z,51.0857
2023-04-11T07:28:54.972Z,51.5022
2023-04-11T07:29:56.830Z,51.9153
2023-04-11T07:30:58.244Z,51.3855
2023-04-11T07:31:59.863Z,51.1592
2023-04-11T07:33:01.505Z,50.9364
2023-04-11T07:34:03.135Z,51.0383
2023-04-11T07:35:05.050Z,51.3024
2023-04-11T07:36:06.499Z,51.8869
2023-04-11T07:37:08.081Z,51.3047
2023-04-11T07:38:09.790Z,51.1756
2023-04-11T07:39:11.460Z,50.8242
2023-04-11T07:40:13.522Z,50.7375
2023-04-11T07:41:14.694Z,50.9977
2023-04-11T07:42:16.311Z,51.0350
2023-04-11T07:43:18.116Z,51.1371
2023-04-11T07:44:19.825Z,51.3935
2023-04-11T07:45:21.365Z,51.3512
2023-04-11T07:46:22.949Z,51.4557
2023-04-11T07:47:24.603Z,51.1789
2023-04-11T07:48:26.344Z,51.2605
2023-04-11T07:49:27.948Z,51.8739
2023-04-11T07:50:29.768Z,51.3251
2023-04-11T07:51:31.154Z,51.1756
2023-04-11T07:52:32.911Z,50.9271
2023-04-11T07:53:34.504Z,50.8531
2023-04-11T07:54:36.101Z,51.1176
2023-04-11T07:55:37.837Z,51.7661
2023-04-11T07:56:40.405Z,51.3383
2023-04-11T07:57:41.087Z,51.0706
2023-04-11T07:58:42.772Z,50.7111
2023-04-11T07:59:44.572Z,50.7423
2023-04-11T08:00:45.991Z,50.7625
2023-04-11T08:01:47.775Z,50.7231
2023-04-11T08:02:50.356Z,51.0027
2023-04-11T08:03:51.076Z,50.9387
2023-04-11T08:04:52.754Z,50.8168
2023-04-11T08:05:54.239Z,50.6832
2023-04-11T08:06:55.896Z,50.7052
2023-04-11T08:07:57.568Z,50.7614
2023-04-11T08:08:59.285Z,51.5129
2023-04-11T08:10:00.848Z,50.9182
2023-04-11T08:11:02.506Z,50.7659
2023-04-11T08:12:04.200Z,50.4439
2023-04-11T08:13:05.856Z,50.3923
2023-04-11T08:14:07.416Z,50.6334
2023-04-11T08:15:09.167Z,51.0498
2023-04-11T08:16:10.837Z,50.5337
2023-04-11T08:17:25.143Z,50.2385
2023-04-11T08:18:14.068Z,49.9466
2023-04-11T08:19:15.698Z,49.7769
2023-04-11T08:20:17.416Z,50.1075
2023-04-11T08:21:19.045Z,50.4379
2023-04-11T08:22:21.022Z,50.1971
2023-04-11T08:23:22.384Z,49.8934
2023-04-11T08:24:23.962Z,49.5665
2023-04-11T08:25:25.630Z,49.3941
2023-04-11T08:26:27.957Z,49.6713
2023-04-11T08:27:28.912Z,50.2007
2023-04-11T08:28:30.714Z,49.7251
2023-04-11T08:29:32.436Z,49.4462
2023-04-11T08:30:33.868Z,49.2172
2023-04-11T08:31:35.456Z,49.2851
2023-04-11T08:32:37.420Z,49.5675
2023-04-11T08:33:38.713Z,49.7185
2023-04-11T08:34:40.389Z,49.6806
2023-04-11T08:35:42.112Z,49.6366
2023-04-11T08:36:43.712Z,49.3867
2023-04-11T08:37:45.938Z,49.4630
2023-04-11T08:38:47.023Z,50.0392
2023-04-11T08:39:48.709Z,50.1759
2023-04-11T08:40:50.532Z,49.9185
2023-04-11T08:41:52.201Z,49.8714
2023-04-11T08:42:53.633Z,49.6111
2023-04-11T08:43:55.572Z,49.6555
2023-04-11T08:44:56.925Z,49.7237
2023-04-11T08:45:58.569Z,49.8262
2023-04-11T08:47:00.283Z,49.8939
2023-04-11T08:48:01.907Z,49.8552
2023-04-11T08:49:03.703Z,49.6405
2023-04-11T08:50:05.091Z,49.4623
2023-04-11T08:51:06.807Z,49.3896
2023-04-11T08:52:08.807Z,49.5792
2023-04-11T08:53:10.055Z,49.5361
2023-04-11T08:54:11.726Z,49.2661
2023-04-11T08:55:13.413Z,49.0327
2023-04-11T08:56:15.023Z,48.7924
2023-04-11T08:57:16.722Z,48.7595
2023-04-11T08:58:18.414Z,49.3788
2023-04-11T08:59:20.052Z,49.0709
2023-04-11T09:00:21.613Z,49.0513
2023-04-11T09:01:23.355Z,48.7338
2023-04-11T09:02:25.109Z,48.3759
2023-04-11T09:03:26.605Z,48.5934
2023-04-11T09:04:29.073Z,48.7740
2023-04-11T09:05:30.202Z,48.4990
2023-04-11T09:06:31.598Z,48.2389
2023-04-11T09:07:33.216Z,47.8356
2023-04-11T09:08:34.830Z,47.6871
2023-04-11T09:09:36.471Z,47.9221
2023-04-11T09:10:38.089Z,47.9745
2023-04-11T09:11:39.764Z,47.6203
2023-04-11T09:12:41.408Z,47.5077
2023-04-11T09:13:43.817Z,47.1627
2023-04-11T09:14:44.694Z,47.0613
2023-04-11T09:15:46.451Z,47.1653
2023-04-11T09:16:47.898Z,46.9741
2023-04-11T09:17:49.546Z,46.6543
2023-04-11T09:18:51.209Z,46.4992
2023-04-11T09:19:52.872Z,46.0909
2023-04-11T09:20:54.584Z,45.9637
2023-04-11T09:21:56.205Z,46.2226
2023-04-11T09:22:57.821Z,45.9984
2023-04-11T09:23:59.427Z,45.6872
2023-04-11T09:25:01.146Z,45.4725
2023-04-11T09:26:02.840Z,45.0963
2023-04-11T09:27:04.454Z,45.0843
2023-04-11T09:28:06.137Z,45.2634
2023-04-11T09:29:07.746Z,44.9235
2023-04-11T09:30:09.397Z,44.9045
2023-04-11T09:31:11.423Z,44.8337
2023-04-11T09:32:13.403Z,44.5065
2023-04-11T09:33:14.359Z,44.4587
2023-04-11T09:34:16.414Z,44.6227
2023-04-11T09:35:18.236Z,44.3868
2023-04-11T09:36:19.330Z,44.6216
2023-04-11T09:37:21.050Z,44.1210
2023-04-11T09:38:22.825Z,43.9615
2023-04-11T09:39:24.296Z,44.1930
2023-04-11T09:40:25.905Z,44.4186
2023-04-11T09:41:27.813Z,44.1995
2023-04-11T09:42:29.311Z,44.3620
2023-04-11T09:43:30.922Z,43.9892
2023-04-11T09:44:32.701Z,43.8529
2023-04-11T09:45:44.212Z,44.0749
2023-04-11T09:46:35.809Z,44.1826
2023-04-11T09:47:37.498Z,43.8943
2023-04-11T09:48:46.502Z,43.8845
2023-04-11T09:49:40.837Z,43.5453
2023-04-11T09:50:42.448Z,43.4229
2023-04-11T09:51:44.025Z,43.6222
2023-04-11T09:52:45.689Z,43.6609
2023-04-11T09:53:47.397Z,43.2825
2023-04-11T09:54:48.980Z,43.2911
2023-04-11T09:55:50.662Z,42.9801
2023-04-11T09:56:52.348Z,42.8915
2023-04-11T09:57:54.918Z,43.0243
2023-04-11T09:58:55.872Z,42.9535
2023-04-11T09:59:58.789Z,42.6841
2023-04-11T10:00:58.814Z,42.8699
2023-04-11T10:02:00.625Z,42.4426
2023-04-11T10:03:02.613Z,42.1891
2023-04-11T10:04:04.589Z,42.3634
2023-04-11T10:05:05.609Z,42.3435
2023-04-11T10:06:07.215Z,41.9961
2023-04-11T10:07:08.842Z,42.1495
2023-04-11T10:08:10.515Z,41.4985
2023-04-11T10:09:12.182Z,41.5578
2023-04-11T10:10:13.783Z,41.5733
2023-04-11T10:11:15.438Z,41.4922
2023-04-11T10:12:17.149Z,41.4091
2023-04-11T10:13:18.840Z,41.3633
2023-04-11T10:14:20.532Z,40.8664
2023-04-11T10:15:21.981Z,40.8351
2023-04-11T10:16:23.821Z,40.8588
2023-04-11T10:17:25.411Z,40.8486
2023-04-11T10:18:27.004Z,40.6947
2023-04-11T10:19:28.686Z,40.7840
2023-04-11T10:20:30.319Z,40.4216
2023-04-11T10:21:32.026Z,40.1698
2023-04-11T10:22:33.576Z,40.4269
2023-04-11T10:23:35.272Z,40.2890
2023-04-11T10:24:36.972Z,40.2020
2023-04-11T10:25:38.559Z,40.1683
2023-04-11T10:26:40.173Z,39.8301
2023-04-11T10:27:41.841Z,39.8361
2023-04-11T10:28:43.726Z,40.0364
2023-04-11T10:29:45.282Z,39.9244
2023-04-11T10:30:46.866Z,39.9231
2023-04-11T10:31:48.634Z,40.0305
2023-04-11T10:32:50.191Z,39.6345
2023-04-11T10:33:51.989Z,39.5211
2023-04-11T10:34:53.556Z,39.6685
2023-04-11T10:35:55.171Z,39.4978
2023-04-11T10:36:56.764Z,39.6166
2023-04-11T10:37:58.990Z,39.5777
2023-04-11T10:39:00.090Z,39.3836
2023-04-11T10:40:01.816Z,39.5030
2023-04-11T10:41:03.470Z,39.6115
2023-04-11T10:42:05.032Z,39.3224
2023-04-11T10:43:07.499Z,39.4974
2023-04-11T10:44:08.362Z,39.0918
2023-04-11T10:45:10.144Z,39.1380
2023-04-11T10:46:11.590Z,39.2637
2023-04-11T10:47:13.593Z,39.4787
2023-04-11T10:48:14.911Z,39.2764
2023-04-11T10:49:16.578Z,39.5102
2023-04-11T10:50:18.655Z,39.1447
2023-04-11T10:51:19.891Z,39.0896
2023-04-11T10:52:21.570Z,39.3402
2023-04-11T10:53:23.217Z,39.5239
2023-04-11T10:54:24.883Z,39.3525
2023-04-11T10:55:27.086Z,39.5345
2023-04-11T10:56:28.184Z,39.1171
2023-04-11T10:57:29.841Z,39.2921
2023-04-11T10:58:31.475Z,39.4050
2023-04-11T10:59:33.097Z,39.3639
2023-04-11T11:00:35.198Z,39.2464
2023-04-11T11:01:42.966Z,39.2261
2023-04-11T11:02:38.425Z,38.9451
2023-04-11T11:03:39.926Z,39.1629
2023-04-11T11:04:41.417Z,39.2975
2023-04-11T11:05:42.997Z,39.2624
2023-04-11T11:06:51.103Z,39.1934
2023-04-11T11:07:46.251Z,39.0621
2023-04-11T11:08:48.397Z,38.9378
2023-04-11T11:09:49.514Z,38.9553
2023-04-11T11:10:51.274Z,39.0406
2023-04-11T11:11:52.818Z,38.9373
2023-04-11T11:12:54.549Z,38.8207
2023-04-11T11:13:56.490Z,38.8240
2023-04-11T11:14:57.814Z,38.4804
2023-04-11T11:15:59.418Z,38.5996
2023-04-11T11:17:01.222Z,38.7097
2023-04-11T11:18:02.756Z,38.7012
2023-04-11T11:19:04.872Z,38.5394
2023-04-11T11:20:06.039Z,38.5236
2023-04-11T11:21:14.170Z,38.4073
2023-04-11T11:22:09.307Z,38.2069
2023-04-11T11:23:14.125Z,38.4667
2023-04-11T11:24:17.585Z,38.4864
2023-04-11T11:25:19.189Z,38.4693
2023-04-11T11:26:20.806Z,38.5293
2023-04-11T11:27:22.413Z,38.3676
2023-04-11T11:28:24.169Z,38.1369
2023-04-11T11:29:25.798Z,38.5505
2023-04-11T11:30:27.357Z,38.4014
2023-04-11T11:31:30.033Z,38.5209
2023-04-11T11:32:30.641Z,38.3970
2023-04-11T11:33:32.396Z,38.1504
2023-04-11T11:34:34.056Z,38.2626
2023-04-11T11:35:35.688Z,38.4410
2023-04-11T11:36:37.249Z,38.3355
2023-04-11T11:37:38.896Z,38.2574
2023-04-11T11:38:41.390Z,38.2028
2023-04-11T11:39:42.238Z,37.9508
2023-04-11T11:40:43.807Z,37.8340
2023-04-11T11:41:46.560Z,38.2715
2023-04-11T11:42:47.140Z,38.1298
2023-04-11T11:43:48.736Z,38.2679
2023-04-11T11:44:50.550Z,38.0662
2023-04-11T11:45:52.138Z,37.8681
2023-04-11T11:46:53.742Z,37.9673
2023-04-11T11:47:55.886Z,38.2682
2023-04-11T11:48:57.288Z,38.1342
2023-04-11T11:49:58.668Z,38.2024
2023-04-11T11:51:01.008Z,37.8298
2023-04-11T11:52:02.099Z,37.8791
2023-04-11T11:53:03.702Z,37.8593
2023-04-11T11:54:05.351Z,38.0690
2023-04-11T11:55:10.860Z,37.9611
2023-04-11T11:56:08.713Z,37.9058
2023-04-11T11:57:10.680Z,37.6817
2023-04-11T11:58:12.153Z,37.5650
2023-04-11T11:59:13.672Z,37.6610
2023-04-11T12:00:15.290Z,37.7828
2023-04-11T12:01:17.196Z,37.8798
2023-04-11T12:02:18.691Z,37.9255
2023-04-11T12:03:20.608Z,37.6662
2023-04-11T12:04:22.189Z,37.8478
2023-04-11T12:05:23.864Z,38.0271
2023-04-11T12:06:25.419Z,38.2093
2023-04-11T12:07:27.010Z,38.4499
2023-04-11T12:08:28.553Z,38.1494
2023-04-11T12:09:30.208Z,37.8731
2023-04-11T12:10:31.894Z,37.9345
2023-04-11T12:11:34.013Z,38.1763
2023-04-11T12:12:35.180Z,38.3655
2023-04-11T12:13:36.856Z,38.3010
2023-04-11T12:14:38.417Z,37.9358
2023-04-11T12:15:40.100Z,37.9074
2023-04-11T12:16:41.798Z,38.0636
2023-04-11T12:17:43.435Z,38.4271
2023-04-11T12:18:45.131Z,38.4483
2023-04-11T12:19:46.776Z,38.3923
2023-04-11T12:20:48.364Z,38.0933
2023-04-11T12:21:50.030Z,38.0932
2023-04-11T12:22:53.674Z,38.2304
2023-04-11T12:23:53.540Z,38.5195
2023-04-11T12:24:54.840Z,38.7404
2023-04-11T12:25:56.668Z,38.6633